createdAt,value
2022-11-26T00:00:30.619Z,3.00
2022-11-26T00:02:58.956Z,3.00
2022-11-26T00:05:32.558Z,3.03
2022-11-26T00:08:01.981Z,3.27
2022-11-26T00:10:35.458Z,3.17
2022-11-26T00:13:03.629Z,3.37
2022-11-26T00:15:33.022Z,3.40
2022-11-26T00:18:01.104Z,3.60
2022-11-26T00:20:31.634Z,3.63
2022-11-26T00:23:03.253Z,3.70
2022-11-26T00:25:40.747Z,3.47
2022-11-26T00:28:24.955Z,3.83
2022-11-26T00:30:53.322Z,3.30
2022-11-26T00:33:21.445Z,4.33
2022-11-26T00:35:51.093Z,2.90
2022-11-26T00:38:22.226Z,3.07
2022-11-26T00:40:51.647Z,3.30
2022-11-26T00:43:19.736Z,3.67
2022-11-26T00:45:50.343Z,3.50
2022-11-26T00:48:19.277Z,3.87
2022-11-26T00:50:50.361Z,3.10
2022-11-26T00:53:22.713Z,4.00
2022-11-26T00:55:52.608Z,3.97
2022-11-26T00:58:26.595Z,3.20
2022-11-26T01:00:55.448Z,2.97
2022-11-26T01:03:24.005Z,3.80
2022-11-26T01:05:53.929Z,2.80
2022-11-26T01:08:31.797Z,3.53
2022-11-26T01:11:02.452Z,4.10
2022-11-26T01:13:31.574Z,3.00
2022-11-26T01:16:02.168Z,3.03
2022-11-26T01:18:35.268Z,3.87
2022-11-26T01:21:03.482Z,3.80
2022-11-26T01:23:31.802Z,2.90
2022-11-26T01:26:06.234Z,3.03
2022-11-26T01:28:35.137Z,4.10
2022-11-26T01:31:03.299Z,2.90
2022-11-26T01:33:31.530Z,3.80
2022-11-26T01:35:59.635Z,3.20
2022-11-26T01:38:27.688Z,2.80
2022-11-26T01:41:04.383Z,3.47
2022-11-26T01:43:40.876Z,3.40
2022-11-26T01:46:15.594Z,3.20
2022-11-26T01:48:43.706Z,3.50
2022-11-26T01:51:12.629Z,5.37
2022-11-26T01:53:47.499Z,4.90
2022-11-26T01:56:21.773Z,4.53
2022-11-26T01:58:55.238Z,4.27
2022-11-26T02:01:23.587Z,6.83
2022-11-26T02:03:59.261Z,9.10
2022-11-26T02:06:32.555Z,5.90
2022-11-26T02:09:02.285Z,5.80
2022-11-26T02:11:30.556Z,8.80
2022-11-26T02:14:03.318Z,8.33
2022-11-26T02:17:11.212Z,6.97
2022-11-26T02:20:15.808Z,5.67
2022-11-26T02:23:29.812Z,5.33
2022-11-26T02:26:34.286Z,4.80
2022-11-26T02:29:11.206Z,5.30
2022-11-26T02:31:45.993Z,4.73
2022-11-26T02:34:19.054Z,4.33
2022-11-26T02:36:52.553Z,4.93
2022-11-26T02:39:22.997Z,3.80
2022-11-26T02:41:53.628Z,3.60
2022-11-26T02:44:25.339Z,3.47
2022-11-26T02:46:58.119Z,3.90
2022-11-26T02:49:28.054Z,3.77
2022-11-26T02:52:00.912Z,4.00
2022-11-26T02:54:30.603Z,2.90
2022-11-26T02:57:00.218Z,3.63
2022-11-26T02:59:28.979Z,3.50
2022-11-26T03:02:01.715Z,3.60
2022-11-26T03:04:34.277Z,3.73
2022-11-26T03:07:06.150Z,3.67
2022-11-26T03:09:41.571Z,4.37
2022-11-26T03:12:10.049Z,3.67
2022-11-26T03:14:38.544Z,3.80
2022-11-26T03:17:08.139Z,3.60
2022-11-26T03:19:36.234Z,3.60
2022-11-26T03:22:05.922Z,3.60
2022-11-26T03:24:34.243Z,3.60
2022-11-26T03:27:02.502Z,3.43
2022-11-26T03:29:30.559Z,3.30
2022-11-26T03:31:58.711Z,3.00
2022-11-26T03:34:28.182Z,3.10
2022-11-26T03:36:56.356Z,3.00
2022-11-26T03:39:24.407Z,2.73
2022-11-26T03:41:52.501Z,3.33
2022-11-26T03:44:20.573Z,3.20
2022-11-26T03:46:48.683Z,3.10
2022-11-26T03:49:16.789Z,3.47
2022-11-26T03:51:46.187Z,3.20
2022-11-26T03:54:14.329Z,3.30
2022-11-26T03:56:42.391Z,3.23
2022-11-26T03:59:10.485Z,3.40
2022-11-26T04:01:39.947Z,3.43
2022-11-26T04:04:08.365Z,3.83
2022-11-26T04:06:36.588Z,3.00
2022-11-26T04:09:06.055Z,3.60
2022-11-26T04:11:34.175Z,3.30
2022-11-26T04:14:02.778Z,3.17
2022-11-26T04:16:30.925Z,3.10
2022-11-26T04:18:59.067Z,2.80
2022-11-26T04:21:27.149Z,2.70
2022-11-26T04:23:55.206Z,3.00
2022-11-26T04:26:24.769Z,2.90
2022-11-26T04:28:52.835Z,3.30
2022-11-26T04:31:20.942Z,2.27
2022-11-26T04:33:49.138Z,3.30
2022-11-26T04:36:17.240Z,3.20
2022-11-26T04:38:45.356Z,2.70
2022-11-26T04:41:13.414Z,2.67
2022-11-26T04:43:42.811Z,2.63
2022-11-26T04:46:10.983Z,2.40
2022-11-26T04:48:39.079Z,2.57
2022-11-26T04:51:07.359Z,3.10
2022-11-26T04:53:35.552Z,2.60
2022-11-26T04:56:03.619Z,1.77
2022-11-26T04:58:31.746Z,2.40
2022-11-26T05:01:01.925Z,2.70
2022-11-26T05:03:30.019Z,2.47
2022-11-26T05:05:58.076Z,2.40
2022-11-26T05:08:26.198Z,2.30
2022-11-26T05:10:55.277Z,2.43
2022-11-26T05:13:23.563Z,1.90
2022-11-26T05:15:52.004Z,2.10
2022-11-26T05:18:21.437Z,2.47
2022-11-26T05:20:49.538Z,2.40
2022-11-26T05:23:17.744Z,2.00
2022-11-26T05:25:47.768Z,3.13
2022-11-26T05:28:15.818Z,2.27
2022-11-26T05:30:44.018Z,2.10
2022-11-26T05:33:12.261Z,2.50
2022-11-26T05:35:41.699Z,2.13
2022-11-26T05:38:09.784Z,2.07
2022-11-26T05:40:37.850Z,1.90
2022-11-26T05:43:05.968Z,2.03
2022-11-26T05:45:34.035Z,2.00
2022-11-26T05:48:02.491Z,1.70
2022-11-26T05:50:30.594Z,1.73
2022-11-26T05:53:00.329Z,2.20
2022-11-26T05:55:28.400Z,1.93
2022-11-26T05:57:56.492Z,1.70
2022-11-26T06:00:24.884Z,1.90
2022-11-26T06:02:53.050Z,1.90
2022-11-26T06:05:21.908Z,2.17
2022-11-26T06:07:50.582Z,1.60
2022-11-26T06:10:20.754Z,1.60
2022-11-26T06:12:48.821Z,1.50
2022-11-26T06:15:17.034Z,1.87
2022-11-26T06:17:46.278Z,1.80
2022-11-26T06:20:14.811Z,1.43
2022-11-26T06:22:44.166Z,1.87
2022-11-26T06:25:14.467Z,2.57
2022-11-26T06:27:43.976Z,2.17
2022-11-26T06:30:13.865Z,1.90
2022-11-26T06:32:41.939Z,1.77
2022-11-26T06:35:10.817Z,1.60
2022-11-26T06:37:38.917Z,1.83
2022-11-26T06:40:09.171Z,1.90
2022-11-26T06:42:37.252Z,2.10
2022-11-26T06:45:07.610Z,2.10
2022-11-26T06:47:35.694Z,1.50
2022-11-26T06:50:09.361Z,1.93
2022-11-26T06:52:38.886Z,1.97
2022-11-26T06:55:07.489Z,2.27
2022-11-26T06:57:35.698Z,2.93
2022-11-26T07:00:04.318Z,2.67
2022-11-26T07:02:33.893Z,3.63
2022-11-26T07:05:01.992Z,3.50
2022-11-26T07:07:30.104Z,4.30
2022-11-26T07:09:58.189Z,5.10
2022-11-26T07:12:26.214Z,7.97
2022-11-26T07:14:54.272Z,8.90
2022-11-26T07:17:22.348Z,6.70
2022-11-26T07:19:51.904Z,4.60
2022-11-26T07:22:20.001Z,4.40
2022-11-26T07:24:48.079Z,3.70
2022-11-26T07:27:16.146Z,4.10
2022-11-26T07:29:44.203Z,5.13
2022-11-26T07:32:12.258Z,4.17
2022-11-26T07:34:40.568Z,4.60
2022-11-26T07:37:10.365Z,3.10
2022-11-26T07:39:38.849Z,3.80
2022-11-26T07:42:06.984Z,4.00
2022-11-26T07:44:35.366Z,3.20
2022-11-26T07:47:04.365Z,2.30
2022-11-26T07:49:32.418Z,3.07
2022-11-26T07:52:00.468Z,2.53
2022-11-26T07:54:29.937Z,2.47
2022-11-26T07:56:58.031Z,2.50
2022-11-26T07:59:26.099Z,2.47
2022-11-26T08:01:54.185Z,2.67
2022-11-26T08:04:22.375Z,2.63
2022-11-26T08:06:50.526Z,2.80
2022-11-26T08:09:18.626Z,2.83
2022-11-26T08:11:48.089Z,2.47
2022-11-26T08:14:16.154Z,2.57
2022-11-26T08:16:44.330Z,2.13
2022-11-26T08:19:14.222Z,2.20
2022-11-26T08:21:42.741Z,3.03
2022-11-26T08:24:15.560Z,2.37
2022-11-26T08:26:44.825Z,2.67
2022-11-26T08:29:15.274Z,3.17
2022-11-26T08:31:46.420Z,2.80
2022-11-26T08:34:16.824Z,3.57
2022-11-26T08:36:45.495Z,2.60
2022-11-26T08:39:14.627Z,2.97
2022-11-26T08:41:47.391Z,2.90
2022-11-26T08:44:20.185Z,3.00
2022-11-26T08:46:48.359Z,3.70
2022-11-26T08:49:16.948Z,4.40
2022-11-26T08:51:45.418Z,4.63
2022-11-26T08:54:13.689Z,4.00
2022-11-26T08:56:41.787Z,4.37
2022-11-26T08:59:09.839Z,4.87
2022-11-26T09:01:39.402Z,4.07
2022-11-26T09:04:07.589Z,4.73
2022-11-26T09:06:37.693Z,4.47
2022-11-26T09:09:23.444Z,4.73
2022-11-26T09:11:54.193Z,4.63
2022-11-26T09:14:24.872Z,3.80
2022-11-26T09:16:56.121Z,6.00
2022-11-26T09:19:25.136Z,6.30
2022-11-26T09:21:53.413Z,6.10
2022-11-26T09:24:22.987Z,4.10
2022-11-26T09:26:51.200Z,4.43
2022-11-26T09:29:21.072Z,4.63
2022-11-26T09:34:39.944Z,6.03
2022-11-26T09:37:09.574Z,5.20
2022-11-26T09:39:37.667Z,5.40
2022-11-26T09:42:07.729Z,5.00
2022-11-26T09:45:01.559Z,5.50
2022-11-26T09:47:35.327Z,6.27
2022-11-26T09:50:19.785Z,6.13
2022-11-26T09:52:54.544Z,6.13
2022-11-26T09:55:25.435Z,6.93
2022-11-26T09:58:04.373Z,6.30
2022-11-26T10:00:34.945Z,5.97
2022-11-26T10:03:03.067Z,5.90
2022-11-26T10:05:46.574Z,6.07
2022-11-26T10:08:28.044Z,6.23
2022-11-26T10:11:03.834Z,6.67
2022-11-26T10:13:42.691Z,6.37
2022-11-26T10:16:19.995Z,6.57
2022-11-26T10:18:58.158Z,7.23
2022-11-26T10:21:57.256Z,5.90
2022-11-26T10:24:26.367Z,7.40
2022-11-26T10:26:55.695Z,7.63
2022-11-26T10:29:26.208Z,8.13
2022-11-26T10:31:59.928Z,6.73
2022-11-26T10:34:39.481Z,7.87
2022-11-26T10:37:09.361Z,8.07
2022-11-26T10:39:37.403Z,8.13
2022-11-26T10:42:13.512Z,8.20
2022-11-26T10:44:42.821Z,8.20
2022-11-26T10:47:26.588Z,7.40
2022-11-26T10:49:56.049Z,7.70
2022-11-26T10:52:28.837Z,9.13
2022-11-26T10:55:22.435Z,8.83
2022-11-26T10:57:54.131Z,8.33
2022-11-26T11:00:38.891Z,10.03
2022-11-26T11:03:16.820Z,9.50
2022-11-26T11:05:45.756Z,8.93
2022-11-26T11:08:28.811Z,10.80
2022-11-26T11:10:58.438Z,8.90
2022-11-26T11:13:41.840Z,8.00
2022-11-26T11:16:11.391Z,7.70
2022-11-26T11:18:48.209Z,7.40
2022-11-26T11:21:18.523Z,9.03
2022-11-26T11:26:43.842Z,7.90
2022-11-26T11:29:32.399Z,9.60
2022-11-26T11:32:04.283Z,8.93
2022-11-26T11:34:35.015Z,9.50
2022-11-26T11:37:05.959Z,10.20
2022-11-26T11:39:36.469Z,9.90
2022-11-26T11:42:07.784Z,8.93
2022-11-26T11:44:40.915Z,9.50
2022-11-26T11:47:22.166Z,9.27
2022-11-26T11:50:03.088Z,8.90
2022-11-26T11:52:39.519Z,9.03
2022-11-26T11:55:22.341Z,9.03
2022-11-26T11:58:07.542Z,7.63
2022-11-26T12:00:44.242Z,8.10
2022-11-26T12:03:35.424Z,7.70
2022-11-26T12:06:15.119Z,7.50
2022-11-26T12:08:53.409Z,7.37
2022-11-26T12:11:32.675Z,7.43
2022-11-26T12:14:04.838Z,7.47
2022-11-26T12:16:38.186Z,7.47
2022-11-26T12:19:12.166Z,6.10
2022-11-26T12:21:45.084Z,5.57
2022-11-26T12:24:20.335Z,7.07
2022-11-26T12:26:54.396Z,7.30
2022-11-26T12:29:29.120Z,6.50
2022-11-26T12:32:04.301Z,6.20
2022-11-26T12:34:36.016Z,5.70
2022-11-26T12:37:07.258Z,5.67
2022-11-26T12:39:40.728Z,4.23
2022-11-26T12:42:18.510Z,4.37
2022-11-26T12:44:51.711Z,3.63
2022-11-26T12:47:25.552Z,4.40
2022-11-26T12:50:08.022Z,4.33
2022-11-26T12:52:44.019Z,4.43
2022-11-26T12:55:20.558Z,5.50
2022-11-26T12:57:55.675Z,4.50
2022-11-26T13:00:31.350Z,5.00
2022-11-26T13:03:03.334Z,5.67
2022-11-26T13:05:38.636Z,7.93
2022-11-26T13:08:19.673Z,5.73
2022-11-26T13:11:05.928Z,5.90
2022-11-26T13:13:49.284Z,5.70
2022-11-26T13:16:24.842Z,5.60
2022-11-26T13:18:56.250Z,5.00
2022-11-26T13:21:46.519Z,5.37
2022-11-26T13:24:47.717Z,4.77
2022-11-26T13:27:29.233Z,4.37
2022-11-26T13:30:13.176Z,4.50
2022-11-26T13:33:00.020Z,4.57
2022-11-26T13:35:47.929Z,4.80
2022-11-26T13:38:23.939Z,4.67
2022-11-26T13:41:19.263Z,4.63
2022-11-26T13:44:14.829Z,4.97
2022-11-26T13:46:49.052Z,4.60
2022-11-26T13:49:21.234Z,4.40
2022-11-26T13:51:52.567Z,5.60
2022-11-26T13:54:26.343Z,4.53
2022-11-26T13:57:01.314Z,4.90
2022-11-26T13:59:31.306Z,5.07
2022-11-26T14:02:20.822Z,5.10
2022-11-26T14:04:53.585Z,5.13
2022-11-26T14:07:22.089Z,4.43
2022-11-26T14:09:53.319Z,4.20
2022-11-26T14:12:23.196Z,3.80
2022-11-26T14:14:52.045Z,3.90
2022-11-26T14:17:29.918Z,4.03
2022-11-26T14:20:11.631Z,3.07
2022-11-26T14:22:40.092Z,3.30
2022-11-26T14:25:13.823Z,3.10
2022-11-26T14:27:49.476Z,3.13
2022-11-26T14:30:25.958Z,3.13
2022-11-26T14:33:15.322Z,3.87
2022-11-26T14:35:54.850Z,4.00
2022-11-26T14:38:25.598Z,3.90
2022-11-26T14:41:01.242Z,3.03
2022-11-26T14:43:30.351Z,3.90
2022-11-26T14:46:10.906Z,3.53
2022-11-26T14:48:43.895Z,4.13
2022-11-26T14:51:12.281Z,3.50
2022-11-26T14:53:46.379Z,3.37
2022-11-26T14:56:14.551Z,3.60
2022-11-26T14:58:46.546Z,3.93
2022-11-26T15:01:21.274Z,3.60
2022-11-26T15:03:58.550Z,3.27
2022-11-26T15:06:28.757Z,4.50
2022-11-26T15:09:15.078Z,4.10
2022-11-26T15:11:47.042Z,3.37
2022-11-26T15:14:23.700Z,3.90
2022-11-26T15:16:57.695Z,4.00
2022-11-26T15:19:28.489Z,5.27
2022-11-26T15:21:56.630Z,4.27
2022-11-26T15:24:24.887Z,5.23
2022-11-26T15:26:52.959Z,4.97
2022-11-26T15:29:33.295Z,3.73
2022-11-26T15:32:01.749Z,4.13
2022-11-26T15:34:33.129Z,3.60
2022-11-26T15:37:01.281Z,4.13
2022-11-26T15:39:31.821Z,3.50
2022-11-26T15:42:05.698Z,4.00
2022-11-26T15:44:42.031Z,3.50
2022-11-26T15:47:19.934Z,4.10
2022-11-26T15:49:54.145Z,4.13
2022-11-26T15:52:24.967Z,4.30
2022-11-26T15:55:16.372Z,4.33
2022-11-26T15:57:45.536Z,4.37
2022-11-26T16:00:22.706Z,3.80
2022-11-26T16:02:52.164Z,3.60
2022-11-26T16:05:30.437Z,4.90
2022-11-26T16:08:00.727Z,4.13
2022-11-26T16:10:31.357Z,3.60
2022-11-26T16:13:19.620Z,4.37
2022-11-26T16:15:55.156Z,4.20
2022-11-26T16:18:35.338Z,3.53
2022-11-26T16:21:14.940Z,3.70
2022-11-26T16:23:43.697Z,3.40
2022-11-26T16:26:16.131Z,4.23
2022-11-26T16:28:45.802Z,3.87
2022-11-26T16:31:14.548Z,4.30
2022-11-26T16:33:43.429Z,3.93
2022-11-26T16:36:24.457Z,4.10
2022-11-26T16:38:53.728Z,4.40
2022-11-26T16:41:23.402Z,4.07
2022-11-26T16:43:51.791Z,3.93
2022-11-26T16:46:23.310Z,3.70
2022-11-26T16:48:52.602Z,3.90
2022-11-26T16:51:22.854Z,3.57
2022-11-26T16:53:51.104Z,3.90
2022-11-26T16:56:23.641Z,3.67
2022-11-26T16:58:52.430Z,4.00
2022-11-26T17:01:21.150Z,4.23
2022-11-26T17:03:49.335Z,3.80
2022-11-26T17:06:21.016Z,3.57
2022-11-26T17:08:50.655Z,4.60
2022-11-26T17:11:19.134Z,4.00
2022-11-26T17:13:47.266Z,4.30
2022-11-26T17:16:17.241Z,4.70
2022-11-26T17:18:45.791Z,5.20
2022-11-26T17:21:14.190Z,3.63
2022-11-26T17:23:42.546Z,3.80
2022-11-26T17:26:19.030Z,3.50
2022-11-26T17:28:47.345Z,3.10
2022-11-26T17:31:15.907Z,3.57
2022-11-26T17:33:44.030Z,3.47
2022-11-26T17:36:20.612Z,3.80
2022-11-26T17:38:49.126Z,4.10
2022-11-26T17:41:18.846Z,4.30
2022-11-26T17:43:47.299Z,3.50
2022-11-26T17:46:21.279Z,4.80
2022-11-26T17:48:53.255Z,5.50
2022-11-26T17:51:25.221Z,4.53
2022-11-26T17:53:53.333Z,4.67
2022-11-26T17:56:24.561Z,3.87
2022-11-26T17:58:52.797Z,4.40
2022-11-26T18:01:21.253Z,4.10
2022-11-26T18:03:49.438Z,4.20
2022-11-26T18:06:18.666Z,4.60
2022-11-26T18:08:47.953Z,4.23
2022-11-26T18:11:17.518Z,4.27
2022-11-26T18:13:47.064Z,3.90
2022-11-26T18:16:15.188Z,3.60
2022-11-26T18:18:43.306Z,4.20
2022-11-26T18:21:12.996Z,4.60
2022-11-26T18:23:47.639Z,3.67
2022-11-26T18:26:18.505Z,4.27
2022-11-26T18:28:47.952Z,3.70
2022-11-26T18:31:16.140Z,3.87
2022-11-26T18:33:44.290Z,3.90
2022-11-26T18:36:12.500Z,3.90
2022-11-26T18:38:40.836Z,4.50
2022-11-26T18:41:09.167Z,5.33
2022-11-26T18:43:38.728Z,5.60
2022-11-26T18:46:11.418Z,3.97
2022-11-26T18:48:40.912Z,4.17
2022-11-26T18:51:09.328Z,4.00
2022-11-26T18:53:38.000Z,3.83
2022-11-26T18:56:08.604Z,6.20
2022-11-26T18:58:36.703Z,3.77
2022-11-26T19:01:14.290Z,4.77
2022-11-26T19:03:44.038Z,4.30
2022-11-26T19:06:16.044Z,3.90
2022-11-26T19:08:44.198Z,4.10
2022-11-26T19:11:14.246Z,4.80
2022-11-26T19:13:42.670Z,5.30
2022-11-26T19:16:16.685Z,3.63
2022-11-26T19:18:47.283Z,4.40
2022-11-26T19:21:20.417Z,3.97
2022-11-26T19:23:50.444Z,3.90
2022-11-26T19:26:19.154Z,5.50
2022-11-26T19:28:47.550Z,5.83
2022-11-26T19:31:17.836Z,4.87
2022-11-26T19:33:48.178Z,4.23
2022-11-26T19:36:17.763Z,3.80
2022-11-26T19:38:46.869Z,4.00
2022-11-26T19:41:15.456Z,4.23
2022-11-26T19:43:43.886Z,4.60
2022-11-26T19:46:14.153Z,4.70
2022-11-26T19:48:45.142Z,4.27
2022-11-26T19:51:15.745Z,8.53
2022-11-26T19:53:44.672Z,5.27
2022-11-26T19:56:18.253Z,4.13
2022-11-26T19:58:47.074Z,4.10
2022-11-26T20:01:18.110Z,4.70
2022-11-26T20:03:46.297Z,4.40
2022-11-26T20:06:18.548Z,5.00
2022-11-26T20:08:47.210Z,4.43
2022-11-26T20:11:16.711Z,4.20
2022-11-26T20:13:46.366Z,4.93
2022-11-26T20:16:16.392Z,4.77
2022-11-26T20:18:45.459Z,5.00
2022-11-26T20:21:17.226Z,4.67
2022-11-26T20:23:45.274Z,4.60
2022-11-26T20:26:16.075Z,5.80
2022-11-26T20:28:44.636Z,5.80
2022-11-26T20:31:17.246Z,5.80
2022-11-26T20:33:48.901Z,4.87
2022-11-26T20:36:20.747Z,5.03
2022-11-26T20:38:52.182Z,5.33
2022-11-26T20:41:20.319Z,5.23
2022-11-26T20:43:51.286Z,6.33
2022-11-26T20:46:22.100Z,5.60
2022-11-26T20:48:50.296Z,5.80
2022-11-26T20:51:21.748Z,6.83
2022-11-26T20:53:50.922Z,6.37
2022-11-26T20:56:20.317Z,5.50
2022-11-26T20:58:48.831Z,6.20
2022-11-26T21:01:18.770Z,6.20
2022-11-26T21:03:47.217Z,6.50
2022-11-26T21:06:16.496Z,6.33
2022-11-26T21:08:46.124Z,6.00
2022-11-26T21:11:15.755Z,6.97
2022-11-26T21:13:44.349Z,6.90
2022-11-26T21:16:16.461Z,7.10
2022-11-26T21:18:45.038Z,7.80
2022-11-26T21:21:14.985Z,8.00
2022-11-26T21:23:45.596Z,7.43
2022-11-26T21:26:17.119Z,7.90
2022-11-26T21:28:45.432Z,7.60
2022-11-26T21:31:17.005Z,7.73
2022-11-26T21:33:46.326Z,8.47
2022-11-26T21:36:15.877Z,7.70
2022-11-26T21:38:49.027Z,8.70
2022-11-26T21:41:19.026Z,7.80
2022-11-26T21:43:49.160Z,8.30
2022-11-26T21:46:18.934Z,7.27
2022-11-26T21:48:47.248Z,7.83
2022-11-26T21:51:17.491Z,7.13
2022-11-26T21:53:49.492Z,7.67
2022-11-26T21:56:19.692Z,8.37
2022-11-26T21:58:48.041Z,7.43
2022-11-26T22:01:17.980Z,7.77
2022-11-26T22:03:48.062Z,8.10
2022-11-26T22:06:17.096Z,8.73
2022-11-26T22:08:47.390Z,8.60
2022-11-26T22:11:16.884Z,7.87
2022-11-26T22:13:45.404Z,8.23
2022-11-26T22:16:16.022Z,8.30
2022-11-26T22:18:45.444Z,9.03
2022-11-26T22:21:15.611Z,8.73
2022-11-26T22:23:43.884Z,8.13
2022-11-26T22:26:13.692Z,9.80
2022-11-26T22:28:42.343Z,8.27
2022-11-26T22:31:12.265Z,8.13
2022-11-26T22:33:40.549Z,9.67
2022-11-26T22:36:09.244Z,8.63
2022-11-26T22:38:39.199Z,7.97
2022-11-26T22:41:09.371Z,7.93
2022-11-26T22:43:38.997Z,7.80
2022-11-26T22:46:08.331Z,8.40
2022-11-26T22:48:36.679Z,9.50
2022-11-26T22:51:05.433Z,7.37
2022-11-26T22:53:34.282Z,8.23
2022-11-26T22:56:04.301Z,6.90
2022-11-26T22:58:34.436Z,7.37
2022-11-26T23:01:05.854Z,5.53
2022-11-26T23:03:36.304Z,6.50
2022-11-26T23:06:05.925Z,6.80
2022-11-26T23:08:34.387Z,6.50
2022-11-26T23:11:17.263Z,5.40
2022-11-26T23:13:46.774Z,6.20
2022-11-26T23:16:16.515Z,5.80
2022-11-26T23:18:44.852Z,6.00
2022-11-26T23:21:15.784Z,5.63
2022-11-26T23:23:44.573Z,5.87
2022-11-26T23:26:17.743Z,6.23
2022-11-26T23:28:48.729Z,6.63
2022-11-26T23:31:20.052Z,6.97
2022-11-26T23:33:49.074Z,6.10
2022-11-26T23:36:17.711Z,6.20
2022-11-26T23:38:45.814Z,6.40
2022-11-26T23:41:13.907Z,6.67
2022-11-26T23:43:42.382Z,7.83
2022-11-26T23:46:14.532Z,6.23
2022-11-26T23:48:44.868Z,6.30
2022-11-26T23:51:14.503Z,6.73
2022-11-26T23:53:45.051Z,6.87
2022-11-26T23:56:15.925Z,6.20
2022-11-26T23:58:44.572Z,5.80
